sensor_id;sensor_type;location;lat;lon;timestamp;temperature;humidity
24162;DHT22;12318;51.262;7.066;2022-07-06T00:01:40;13.50;99.90
24162;DHT22;12318;51.262;7.066;2022-07-06T00:04:06;13.50;99.90
24162;DHT22;12318;51.262;7.066;2022-07-06T00:06:32;13.40;99.90
24162;DHT22;12318;51.262;7.066;2022-07-06T00:08:58;13.40;99.90
24162;DHT22;12318;51.262;7.066;2022-07-06T00:11:25;13.40;99.90
24162;DHT22;12318;51.262;7.066;2022-07-06T00:13:51;13.40;99.90
24162;DHT22;12318;51.262;7.066;2022-07-06T00:16:17;13.30;99.90
24162;DHT22;12318;51.262;7.066;2022-07-06T00:18:43;13.30;99.90
24162;DHT22;12318;51.262;7.066;2022-07-06T00:21:09;13.20;99.90
24162;DHT22;12318;51.262;7.066;2022-07-06T00:23:35;13.30;99.90
24162;DHT22;12318;51.262;7.066;2022-07-06T00:26:01;13.20;99.90
24162;DHT22;12318;51.262;7.066;2022-07-06T00:28:27;13.20;99.90
24162;DHT22;12318;51.262;7.066;2022-07-06T00:30:53;13.30;99.90
24162;DHT22;12318;51.262;7.066;2022-07-06T00:33:19;13.10;99.90
24162;DHT22;12318;51.262;7.066;2022-07-06T00:35:45;13.00;99.90
24162;DHT22;12318;51.262;7.066;2022-07-06T00:38:11;13.00;99.90
24162;DHT22;12318;51.262;7.066;2022-07-06T00:40:36;12.90;99.90
24162;DHT22;12318;51.262;7.066;2022-07-06T00:43:02;12.80;99.90
24162;DHT22;12318;51.262;7.066;2022-07-06T00:45:29;12.80;99.90
24162;DHT22;12318;51.262;7.066;2022-07-06T00:47:55;12.70;99.90
24162;DHT22;12318;51.262;7.066;2022-07-06T00:50:21;12.60;99.90
24162;DHT22;12318;51.262;7.066;2022-07-06T00:55:20;12.60;99.90
24162;DHT22;12318;51.262;7.066;2022-07-06T00:57:47;12.60;99.90
24162;DHT22;12318;51.262;7.066;2022-07-06T01:00:15;12.60;99.90
24162;DHT22;12318;51.262;7.066;2022-07-06T01:02:41;12.60;99.90
24162;DHT22;12318;51.262;7.066;2022-07-06T01:05:10;12.60;99.90
24162;DHT22;12318;51.262;7.066;2022-07-06T01:07:37;12.60;99.90
24162;DHT22;12318;51.262;7.066;2022-07-06T01:10:04;12.60;99.90
24162;DHT22;12318;51.262;7.066;2022-07-06T01:12:31;12.60;99.90
24162;DHT22;12318;51.262;7.066;2022-07-06T01:14:57;12.60;99.90
24162;DHT22;12318;51.262;7.066;2022-07-06T01:17:23;12.60;99.90
24162;DHT22;12318;51.262;7.066;2022-07-06T01:19:49;12.40;99.90
24162;DHT22;12318;51.262;7.066;2022-07-06T01:22:15;12.40;99.90
24162;DHT22;12318;51.262;7.066;2022-07-06T01:24:41;12.30;99.90
24162;DHT22;12318;51.262;7.066;2022-07-06T01:27:07;12.30;99.90
24162;DHT22;12318;51.262;7.066;2022-07-06T01:29:33;12.30;99.90
24162;DHT22;12318;51.262;7.066;2022-07-06T01:32:00;12.20;99.90
24162;DHT22;12318;51.262;7.066;2022-07-06T01:34:26;12.10;99.90
24162;DHT22;12318;51.262;7.066;2022-07-06T01:36:52;12.10;99.90
24162;DHT22;12318;51.262;7.066;2022-07-06T01:39:19;11.90;99.90
24162;DHT22;12318;51.262;7.066;2022-07-06T01:41:45;12.00;99.90
24162;DHT22;12318;51.262;7.066;2022-07-06T01:44:11;12.00;99.90
24162;DHT22;12318;51.262;7.066;2022-07-06T01:46:37;12.00;99.90
24162;DHT22;12318;51.262;7.066;2022-07-06T01:49:04;11.90;99.90
24162;DHT22;12318;51.262;7.066;2022-07-06T01:51:30;12.00;99.90
24162;DHT22;12318;51.262;7.066;2022-07-06T01:53:55;12.00;99.90
24162;DHT22;12318;51.262;7.066;2022-07-06T01:56:21;11.90;99.90
24162;DHT22;12318;51.262;7.066;2022-07-06T01:58:47;12.00;99.90
24162;DHT22;12318;51.262;7.066;2022-07-06T02:01:18;11.90;99.90
24162;DHT22;12318;51.262;7.066;2022-07-06T02:03:45;11.90;99.90
24162;DHT22;12318;51.262;7.066;2022-07-06T02:06:11;12.00;99.90
24162;DHT22;12318;51.262;7.066;2022-07-06T02:08:39;12.00;99.90
24162;DHT22;12318;51.262;7.066;2022-07-06T02:11:06;11.90;99.90
24162;DHT22;12318;51.262;7.066;2022-07-06T02:13:33;11.90;99.90
24162;DHT22;12318;51.262;7.066;2022-07-06T02:15:59;11.80;99.90
24162;DHT22;12318;51.262;7.066;2022-07-06T02:18:25;11.80;99.90
24162;DHT22;12318;51.262;7.066;2022-07-06T02:20:51;11.70;99.90
24162;DHT22;12318;51.262;7.066;2022-07-06T02:23:17;11.60;99.90
24162;DHT22;12318;51.262;7.066;2022-07-06T02:25:42;11.70;99.90
24162;DHT22;12318;51.262;7.066;2022-07-06T02:28:08;11.70;99.90
24162;DHT22;12318;51.262;7.066;2022-07-06T02:30:34;11.70;99.90
24162;DHT22;12318;51.262;7.066;2022-07-06T02:33:00;11.70;99.90
24162;DHT22;12318;51.262;7.066;2022-07-06T02:35:26;11.70;99.90
24162;DHT22;12318;51.262;7.066;2022-07-06T02:37:52;11.70;99.90
24162;DHT22;12318;51.262;7.066;2022-07-06T02:40:17;11.70;99.90
24162;DHT22;12318;51.262;7.066;2022-07-06T02:42:43;11.70;99.90
24162;DHT22;12318;51.262;7.066;2022-07-06T02:45:09;11.70;99.90
24162;DHT22;12318;51.262;7.066;2022-07-06T02:47:36;11.80;99.90
24162;DHT22;12318;51.262;7.066;2022-07-06T02:50:03;11.90;99.90
24162;DHT22;12318;51.262;7.066;2022-07-06T02:52:28;11.80;99.90
24162;DHT22;12318;51.262;7.066;2022-07-06T02:54:54;11.90;99.90
24162;DHT22;12318;51.262;7.066;2022-07-06T02:57:20;11.90;99.90
24162;DHT22;12318;51.262;7.066;2022-07-06T02:59:46;11.90;99.90
24162;DHT22;12318;51.262;7.066;2022-07-06T03:02:12;11.90;99.90
24162;DHT22;12318;51.262;7.066;2022-07-06T03:04:37;11.80;99.90
24162;DHT22;12318;51.262;7.066;2022-07-06T03:07:03;11.90;99.90
24162;DHT22;12318;51.262;7.066;2022-07-06T03:09:29;11.80;99.90
24162;DHT22;12318;51.262;7.066;2022-07-06T03:11:55;11.90;99.90
24162;DHT22;12318;51.262;7.066;2022-07-06T03:14:21;11.80;99.90
24162;DHT22;12318;51.262;7.066;2022-07-06T03:16:47;11.80;99.90
24162;DHT22;12318;51.262;7.066;2022-07-06T03:19:12;11.80;99.90
24162;DHT22;12318;51.262;7.066;2022-07-06T03:21:38;11.70;99.90
24162;DHT22;12318;51.262;7.066;2022-07-06T03:24:04;11.70;99.90
24162;DHT22;12318;51.262;7.066;2022-07-06T03:26:30;11.70;99.90
24162;DHT22;12318;51.262;7.066;2022-07-06T03:28:56;11.80;99.90
24162;DHT22;12318;51.262;7.066;2022-07-06T03:31:21;11.70;99.90
24162;DHT22;12318;51.262;7.066;2022-07-06T03:33:47;11.70;99.90
24162;DHT22;12318;51.262;7.066;2022-07-06T03:36:13;11.60;99.90
24162;DHT22;12318;51.262;7.066;2022-07-06T03:38:39;11.50;99.90
24162;DHT22;12318;51.262;7.066;2022-07-06T03:41:04;11.40;99.90
24162;DHT22;12318;51.262;7.066;2022-07-06T03:43:30;11.50;99.90
24162;DHT22;12318;51.262;7.066;2022-07-06T03:45:56;11.50;99.90
24162;DHT22;12318;51.262;7.066;2022-07-06T03:48:22;11.60;99.90
24162;DHT22;12318;51.262;7.066;2022-07-06T03:50:48;11.60;99.90
24162;DHT22;12318;51.262;7.066;2022-07-06T03:53:14;11.60;99.90
24162;DHT22;12318;51.262;7.066;2022-07-06T03:55:39;11.60;99.90
24162;DHT22;12318;51.262;7.066;2022-07-06T03:58:05;11.60;99.90
24162;DHT22;12318;51.262;7.066;2022-07-06T04:00:31;11.60;99.90
24162;DHT22;12318;51.262;7.066;2022-07-06T04:02:57;11.60;99.90
24162;DHT22;12318;51.262;7.066;2022-07-06T04:05:23;11.60;99.90
24162;DHT22;12318;51.262;7.066;2022-07-06T04:07:50;11.70;99.90
24162;DHT22;12318;51.262;7.066;2022-07-06T04:10:16;11.70;99.90
24162;DHT22;12318;51.262;7.066;2022-07-06T04:12:45;11.70;99.90
24162;DHT22;12318;51.262;7.066;2022-07-06T04:15:11;11.60;99.90
24162;DHT22;12318;51.262;7.066;2022-07-06T04:17:38;11.60;99.90
24162;DHT22;12318;51.262;7.066;2022-07-06T04:20:21;11.60;99.90
24162;DHT22;12318;51.262;7.066;2022-07-06T04:22:48;11.70;99.90
24162;DHT22;12318;51.262;7.066;2022-07-06T04:25:14;11.70;99.90
24162;DHT22;12318;51.262;7.066;2022-07-06T04:27:40;11.70;99.90
24162;DHT22;12318;51.262;7.066;2022-07-06T04:30:10;11.70;99.90
24162;DHT22;12318;51.262;7.066;2022-07-06T04:32:36;11.70;99.90
24162;DHT22;12318;51.262;7.066;2022-07-06T04:35:03;11.80;99.90
24162;DHT22;12318;51.262;7.066;2022-07-06T04:37:29;11.90;99.90
24162;DHT22;12318;51.262;7.066;2022-07-06T04:39:55;11.90;99.90
24162;DHT22;12318;51.262;7.066;2022-07-06T04:42:21;11.90;99.90
24162;DHT22;12318;51.262;7.066;2022-07-06T04:44:47;12.00;99.90
24162;DHT22;12318;51.262;7.066;2022-07-06T04:47:13;12.00;99.90
24162;DHT22;12318;51.262;7.066;2022-07-06T04:49:39;12.00;99.90
24162;DHT22;12318;51.262;7.066;2022-07-06T04:52:05;12.00;99.90
24162;DHT22;12318;51.262;7.066;2022-07-06T04:54:31;12.10;99.90
24162;DHT22;12318;51.262;7.066;2022-07-06T04:56:57;12.10;99.90
24162;DHT22;12318;51.262;7.066;2022-07-06T04:59:23;12.20;99.90
24162;DHT22;12318;51.262;7.066;2022-07-06T05:01:49;12.20;99.90
24162;DHT22;12318;51.262;7.066;2022-07-06T05:04:15;12.30;99.90
24162;DHT22;12318;51.262;7.066;2022-07-06T05:06:44;12.30;99.90
24162;DHT22;12318;51.262;7.066;2022-07-06T05:09:11;12.40;99.90
24162;DHT22;12318;51.262;7.066;2022-07-06T05:11:37;12.50;99.90
24162;DHT22;12318;51.262;7.066;2022-07-06T05:14:03;12.60;99.90
24162;DHT22;12318;51.262;7.066;2022-07-06T05:16:29;12.60;99.90
24162;DHT22;12318;51.262;7.066;2022-07-06T05:18:55;12.70;99.90
24162;DHT22;12318;51.262;7.066;2022-07-06T05:21:21;12.60;99.90
24162;DHT22;12318;51.262;7.066;2022-07-06T05:23:46;12.70;99.90
24162;DHT22;12318;51.262;7.066;2022-07-06T05:26:12;12.80;99.90
24162;DHT22;12318;51.262;7.066;2022-07-06T05:28:38;12.80;99.90
24162;DHT22;12318;51.262;7.066;2022-07-06T05:31:04;12.80;99.90
24162;DHT22;12318;51.262;7.066;2022-07-06T05:33:30;12.80;99.90
24162;DHT22;12318;51.262;7.066;2022-07-06T05:35:56;13.00;99.90
24162;DHT22;12318;51.262;7.066;2022-07-06T05:38:21;13.20;99.90
24162;DHT22;12318;51.262;7.066;2022-07-06T05:40:50;13.30;99.90
24162;DHT22;12318;51.262;7.066;2022-07-06T05:43:17;13.30;99.90
24162;DHT22;12318;51.262;7.066;2022-07-06T05:45:43;13.30;99.90
24162;DHT22;12318;51.262;7.066;2022-07-06T05:48:09;13.30;99.90
24162;DHT22;12318;51.262;7.066;2022-07-06T05:50:56;13.40;99.90
24162;DHT22;12318;51.262;7.066;2022-07-06T05:53:22;13.30;99.90
24162;DHT22;12318;51.262;7.066;2022-07-06T05:55:48;13.20;99.90
24162;DHT22;12318;51.262;7.066;2022-07-06T05:58:15;13.10;99.90
24162;DHT22;12318;51.262;7.066;2022-07-06T06:00:41;13.00;99.90
24162;DHT22;12318;51.262;7.066;2022-07-06T06:03:06;13.00;99.90
24162;DHT22;12318;51.262;7.066;2022-07-06T06:05:32;13.10;99.90
24162;DHT22;12318;51.262;7.066;2022-07-06T06:07:58;13.10;99.90
24162;DHT22;12318;51.262;7.066;2022-07-06T06:10:24;13.20;99.90
24162;DHT22;12318;51.262;7.066;2022-07-06T06:12:51;13.30;99.90
24162;DHT22;12318;51.262;7.066;2022-07-06T06:15:17;13.30;99.90
24162;DHT22;12318;51.262;7.066;2022-07-06T06:17:43;13.50;99.90
24162;DHT22;12318;51.262;7.066;2022-07-06T06:20:11;13.60;99.90
24162;DHT22;12318;51.262;7.066;2022-07-06T06:22:57;13.80;99.90
24162;DHT22;12318;51.262;7.066;2022-07-06T06:25:37;13.70;99.90
24162;DHT22;12318;51.262;7.066;2022-07-06T06:28:05;13.70;99.90
24162;DHT22;12318;51.262;7.066;2022-07-06T06:30:31;13.70;99.90
24162;DHT22;12318;51.262;7.066;2022-07-06T06:33:10;13.80;99.90
24162;DHT22;12318;51.262;7.066;2022-07-06T06:35:37;13.80;99.90
24162;DHT22;12318;51.262;7.066;2022-07-06T06:38:04;13.70;99.90
24162;DHT22;12318;51.262;7.066;2022-07-06T06:40:30;13.70;99.90
24162;DHT22;12318;51.262;7.066;2022-07-06T06:42:55;13.90;99.90
24162;DHT22;12318;51.262;7.066;2022-07-06T06:45:21;14.40;99.90
24162;DHT22;12318;51.262;7.066;2022-07-06T06:47:47;14.80;99.90
24162;DHT22;12318;51.262;7.066;2022-07-06T06:50:13;15.00;99.90
24162;DHT22;12318;51.262;7.066;2022-07-06T06:52:38;15.30;99.90
24162;DHT22;12318;51.262;7.066;2022-07-06T06:55:04;15.40;99.90
24162;DHT22;12318;51.262;7.066;2022-07-06T06:57:30;15.50;99.90
24162;DHT22;12318;51.262;7.066;2022-07-06T06:59:56;15.60;99.90
24162;DHT22;12318;51.262;7.066;2022-07-06T07:02:23;15.40;99.90
24162;DHT22;12318;51.262;7.066;2022-07-06T07:04:49;15.50;99.90
24162;DHT22;12318;51.262;7.066;2022-07-06T07:07:14;15.70;99.90
24162;DHT22;12318;51.262;7.066;2022-07-06T07:09:41;15.80;99.90
24162;DHT22;12318;51.262;7.066;2022-07-06T07:12:07;15.70;99.90
24162;DHT22;12318;51.262;7.066;2022-07-06T07:14:33;15.70;99.90
24162;DHT22;12318;51.262;7.066;2022-07-06T07:16:58;15.70;99.90
24162;DHT22;12318;51.262;7.066;2022-07-06T07:19:24;15.70;99.90
24162;DHT22;12318;51.262;7.066;2022-07-06T07:21:50;15.70;99.90
24162;DHT22;12318;51.262;7.066;2022-07-06T07:24:19;15.70;99.90
24162;DHT22;12318;51.262;7.066;2022-07-06T07:26:44;15.80;99.90
24162;DHT22;12318;51.262;7.066;2022-07-06T07:29:10;16.00;99.90
24162;DHT22;12318;51.262;7.066;2022-07-06T07:31:36;16.10;99.90
24162;DHT22;12318;51.262;7.066;2022-07-06T07:34:02;16.10;99.90
24162;DHT22;12318;51.262;7.066;2022-07-06T07:36:28;16.20;99.90
24162;DHT22;12318;51.262;7.066;2022-07-06T07:38:53;16.10;99.90
24162;DHT22;12318;51.262;7.066;2022-07-06T07:41:19;16.00;99.90
24162;DHT22;12318;51.262;7.066;2022-07-06T07:43:45;16.40;99.90
24162;DHT22;12318;51.262;7.066;2022-07-06T07:46:11;16.50;99.90
24162;DHT22;12318;51.262;7.066;2022-07-06T07:48:37;16.60;99.90
24162;DHT22;12318;51.262;7.066;2022-07-06T07:51:02;16.60;99.90
24162;DHT22;12318;51.262;7.066;2022-07-06T07:53:28;16.60;99.90
24162;DHT22;12318;51.262;7.066;2022-07-06T07:55:54;16.70;99.90
24162;DHT22;12318;51.262;7.066;2022-07-06T07:58:20;16.70;99.90
24162;DHT22;12318;51.262;7.066;2022-07-06T08:00:47;16.70;99.90
24162;DHT22;12318;51.262;7.066;2022-07-06T08:03:12;16.60;99.90
24162;DHT22;12318;51.262;7.066;2022-07-06T08:05:38;16.70;99.90
24162;DHT22;12318;51.262;7.066;2022-07-06T08:08:05;16.80;99.90
24162;DHT22;12318;51.262;7.066;2022-07-06T08:10:31;16.60;99.90
24162;DHT22;12318;51.262;7.066;2022-07-06T08:12:57;16.60;99.90
24162;DHT22;12318;51.262;7.066;2022-07-06T08:15:22;16.70;99.90
24162;DHT22;12318;51.262;7.066;2022-07-06T08:17:48;17.00;99.90
24162;DHT22;12318;51.262;7.066;2022-07-06T08:20:15;17.00;99.90
24162;DHT22;12318;51.262;7.066;2022-07-06T08:22:42;16.90;99.90
24162;DHT22;12318;51.262;7.066;2022-07-06T08:25:08;16.50;99.90
24162;DHT22;12318;51.262;7.066;2022-07-06T08:27:34;16.70;99.90
24162;DHT22;12318;51.262;7.066;2022-07-06T08:30:00;16.90;99.90
24162;DHT22;12318;51.262;7.066;2022-07-06T08:32:26;17.00;99.90
24162;DHT22;12318;51.262;7.066;2022-07-06T08:34:52;17.00;99.90
24162;DHT22;12318;51.262;7.066;2022-07-06T08:37:18;17.10;99.90
24162;DHT22;12318;51.262;7.066;2022-07-06T08:39:45;16.90;99.90
24162;DHT22;12318;51.262;7.066;2022-07-06T08:42:12;17.00;99.90
24162;DHT22;12318;51.262;7.066;2022-07-06T08:44:38;16.90;99.90
24162;DHT22;12318;51.262;7.066;2022-07-06T08:47:05;16.90;99.90
24162;DHT22;12318;51.262;7.066;2022-07-06T08:49:33;17.00;99.90
24162;DHT22;12318;51.262;7.066;2022-07-06T08:52:02;16.90;99.90
24162;DHT22;12318;51.262;7.066;2022-07-06T08:54:29;16.60;99.90
24162;DHT22;12318;51.262;7.066;2022-07-06T08:56:54;16.60;99.90
24162;DHT22;12318;51.262;7.066;2022-07-06T08:59:21;16.80;99.90
24162;DHT22;12318;51.262;7.066;2022-07-06T09:01:46;16.90;99.90
24162;DHT22;12318;51.262;7.066;2022-07-06T09:04:14;16.90;99.90
24162;DHT22;12318;51.262;7.066;2022-07-06T09:06:42;17.30;99.90
24162;DHT22;12318;51.262;7.066;2022-07-06T09:09:09;17.30;99.90
24162;DHT22;12318;51.262;7.066;2022-07-06T09:11:35;17.40;99.90
24162;DHT22;12318;51.262;7.066;2022-07-06T09:14:03;17.40;99.90
24162;DHT22;12318;51.262;7.066;2022-07-06T09:16:31;17.60;99.90
24162;DHT22;12318;51.262;7.066;2022-07-06T09:18:57;17.80;99.90
24162;DHT22;12318;51.262;7.066;2022-07-06T09:21:25;17.60;99.90
24162;DHT22;12318;51.262;7.066;2022-07-06T09:23:55;17.40;99.90
24162;DHT22;12318;51.262;7.066;2022-07-06T09:26:22;17.40;99.90
24162;DHT22;12318;51.262;7.066;2022-07-06T09:28:48;17.40;99.90
24162;DHT22;12318;51.262;7.066;2022-07-06T09:31:14;17.60;99.90
24162;DHT22;12318;51.262;7.066;2022-07-06T09:34:00;17.70;99.90
24162;DHT22;12318;51.262;7.066;2022-07-06T09:36:47;17.90;99.90
24162;DHT22;12318;51.262;7.066;2022-07-06T09:41:47;18.00;99.00
24162;DHT22;12318;51.262;7.066;2022-07-06T09:44:18;18.10;99.10
24162;DHT22;12318;51.262;7.066;2022-07-06T09:46:47;18.60;99.40
24162;DHT22;12318;51.262;7.066;2022-07-06T09:49:17;18.70;99.00
24162;DHT22;12318;51.262;7.066;2022-07-06T09:51:44;18.50;99.10
24162;DHT22;12318;51.262;7.066;2022-07-06T09:54:11;18.10;99.00
24162;DHT22;12318;51.262;7.066;2022-07-06T09:56:42;18.00;98.10
24162;DHT22;12318;51.262;7.066;2022-07-06T09:59:09;18.20;97.80
24162;DHT22;12318;51.262;7.066;2022-07-06T10:01:36;18.20;98.80
24162;DHT22;12318;51.262;7.066;2022-07-06T10:04:03;17.80;97.50
24162;DHT22;12318;51.262;7.066;2022-07-06T10:06:30;17.70;99.90
24162;DHT22;12318;51.262;7.066;2022-07-06T10:08:57;17.90;99.70
24162;DHT22;12318;51.262;7.066;2022-07-06T10:11:28;17.90;99.90
24162;DHT22;12318;51.262;7.066;2022-07-06T10:13:57;17.70;99.30
24162;DHT22;12318;51.262;7.066;2022-07-06T10:16:24;17.90;99.90
24162;DHT22;12318;51.262;7.066;2022-07-06T10:18:53;18.30;99.90
24162;DHT22;12318;51.262;7.066;2022-07-06T10:21:21;18.40;98.00
24162;DHT22;12318;51.262;7.066;2022-07-06T10:23:49;18.50;98.70
24162;DHT22;12318;51.262;7.066;2022-07-06T10:26:16;18.80;97.00
24162;DHT22;12318;51.262;7.066;2022-07-06T10:28:43;18.50;99.50
24162;DHT22;12318;51.262;7.066;2022-07-06T10:31:10;18.10;99.10
24162;DHT22;12318;51.262;7.066;2022-07-06T10:33:37;18.30;99.90
24162;DHT22;12318;51.262;7.066;2022-07-06T10:36:04;18.60;98.20
24162;DHT22;12318;51.262;7.066;2022-07-06T10:38:32;19.50;95.70
24162;DHT22;12318;51.262;7.066;2022-07-06T10:41:06;19.90;94.00
24162;DHT22;12318;51.262;7.066;2022-07-06T10:43:37;18.90;94.90
24162;DHT22;12318;51.262;7.066;2022-07-06T10:46:14;18.80;96.00
24162;DHT22;12318;51.262;7.066;2022-07-06T10:48:45;18.70;96.50
24162;DHT22;12318;51.262;7.066;2022-07-06T10:51:12;18.60;98.40
24162;DHT22;12318;51.262;7.066;2022-07-06T10:53:40;18.40;98.30
24162;DHT22;12318;51.262;7.066;2022-07-06T10:56:07;18.40;97.60
24162;DHT22;12318;51.262;7.066;2022-07-06T10:58:49;18.60;96.00
24162;DHT22;12318;51.262;7.066;2022-07-06T11:01:18;18.80;97.20
24162;DHT22;12318;51.262;7.066;2022-07-06T11:03:48;19.20;96.60
24162;DHT22;12318;51.262;7.066;2022-07-06T11:08:48;18.90;95.60
24162;DHT22;12318;51.262;7.066;2022-07-06T11:11:20;18.70;96.50
24162;DHT22;12318;51.262;7.066;2022-07-06T11:17:01;18.60;97.00
24162;DHT22;12318;51.262;7.066;2022-07-06T11:19:28;18.90;95.70
24162;DHT22;12318;51.262;7.066;2022-07-06T11:22:07;19.30;96.00
24162;DHT22;12318;51.262;7.066;2022-07-06T11:24:35;19.40;97.40
24162;DHT22;12318;51.262;7.066;2022-07-06T11:27:01;18.80;95.30
24162;DHT22;12318;51.262;7.066;2022-07-06T11:29:29;19.00;96.30
24162;DHT22;12318;51.262;7.066;2022-07-06T11:31:59;19.10;93.00
24162;DHT22;12318;51.262;7.066;2022-07-06T11:34:28;19.20;92.70
24162;DHT22;12318;51.262;7.066;2022-07-06T11:37:05;19.40;95.10
24162;DHT22;12318;51.262;7.066;2022-07-06T11:39:34;18.80;95.50
24162;DHT22;12318;51.262;7.066;2022-07-06T11:42:01;18.80;95.20
24162;DHT22;12318;51.262;7.066;2022-07-06T11:44:29;18.90;96.40
24162;DHT22;12318;51.262;7.066;2022-07-06T11:46:56;18.80;98.00
24162;DHT22;12318;51.262;7.066;2022-07-06T11:49:23;18.60;98.00
24162;DHT22;12318;51.262;7.066;2022-07-06T11:51:49;18.80;97.70
24162;DHT22;12318;51.262;7.066;2022-07-06T11:56:52;19.50;94.60
24162;DHT22;12318;51.262;7.066;2022-07-06T11:59:29;19.90;95.40
24162;DHT22;12318;51.262;7.066;2022-07-06T12:02:15;19.70;96.30
24162;DHT22;12318;51.262;7.066;2022-07-06T12:04:43;19.90;96.00
24162;DHT22;12318;51.262;7.066;2022-07-06T12:07:12;19.50;97.10
24162;DHT22;12318;51.262;7.066;2022-07-06T12:09:40;19.60;96.70
24162;DHT22;12318;51.262;7.066;2022-07-06T12:12:08;19.60;93.70
24162;DHT22;12318;51.262;7.066;2022-07-06T12:14:37;19.20;96.40
24162;DHT22;12318;51.262;7.066;2022-07-06T12:17:06;19.00;97.00
24162;DHT22;12318;51.262;7.066;2022-07-06T12:19:32;18.70;96.40
24162;DHT22;12318;51.262;7.066;2022-07-06T12:21:58;18.80;98.20
24162;DHT22;12318;51.262;7.066;2022-07-06T12:24:26;19.00;98.20
24162;DHT22;12318;51.262;7.066;2022-07-06T12:27:08;19.10;96.20
24162;DHT22;12318;51.262;7.066;2022-07-06T12:29:34;19.50;95.80
24162;DHT22;12318;51.262;7.066;2022-07-06T12:32:00;19.50;96.30
24162;DHT22;12318;51.262;7.066;2022-07-06T12:34:29;19.70;95.90
24162;DHT22;12318;51.262;7.066;2022-07-06T12:37:08;19.80;96.90
24162;DHT22;12318;51.262;7.066;2022-07-06T12:39:42;19.60;96.60
24162;DHT22;12318;51.262;7.066;2022-07-06T12:42:08;19.50;97.30
24162;DHT22;12318;51.262;7.066;2022-07-06T12:44:43;19.50;97.40
24162;DHT22;12318;51.262;7.066;2022-07-06T12:47:09;19.80;95.20
24162;DHT22;12318;51.262;7.066;2022-07-06T12:49:37;19.50;97.30
24162;DHT22;12318;51.262;7.066;2022-07-06T12:54:34;19.40;95.70
24162;DHT22;12318;51.262;7.066;2022-07-06T12:57:07;19.60;95.40
24162;DHT22;12318;51.262;7.066;2022-07-06T12:59:38;19.30;97.40
24162;DHT22;12318;51.262;7.066;2022-07-06T13:02:04;19.70;96.70
24162;DHT22;12318;51.262;7.066;2022-07-06T13:04:32;19.90;94.30
24162;DHT22;12318;51.262;7.066;2022-07-06T13:06:59;20.20;95.10
24162;DHT22;12318;51.262;7.066;2022-07-06T13:09:26;20.10;97.00
24162;DHT22;12318;51.262;7.066;2022-07-06T13:11:52;19.60;95.80
24162;DHT22;12318;51.262;7.066;2022-07-06T13:14:18;19.50;96.70
24162;DHT22;12318;51.262;7.066;2022-07-06T13:16:46;19.40;97.80
24162;DHT22;12318;51.262;7.066;2022-07-06T13:19:12;19.30;98.80
24162;DHT22;12318;51.262;7.066;2022-07-06T13:21:38;19.50;95.90
24162;DHT22;12318;51.262;7.066;2022-07-06T13:24:05;19.50;97.70
24162;DHT22;12318;51.262;7.066;2022-07-06T13:26:32;19.50;98.40
24162;DHT22;12318;51.262;7.066;2022-07-06T13:29:03;19.40;95.50
24162;DHT22;12318;51.262;7.066;2022-07-06T13:31:29;19.70;97.30
24162;DHT22;12318;51.262;7.066;2022-07-06T13:33:56;20.00;96.60
24162;DHT22;12318;51.262;7.066;2022-07-06T13:36:23;20.00;95.50
24162;DHT22;12318;51.262;7.066;2022-07-06T13:38:49;20.30;95.20
24162;DHT22;12318;51.262;7.066;2022-07-06T13:41:14;20.50;94.60
24162;DHT22;12318;51.262;7.066;2022-07-06T13:43:40;20.40;95.10
24162;DHT22;12318;51.262;7.066;2022-07-06T13:46:07;20.20;97.20
24162;DHT22;12318;51.262;7.066;2022-07-06T13:48:33;20.10;95.70
24162;DHT22;12318;51.262;7.066;2022-07-06T13:50:59;20.20;96.90
24162;DHT22;12318;51.262;7.066;2022-07-06T13:53:26;20.40;95.50
24162;DHT22;12318;51.262;7.066;2022-07-06T13:55:52;20.40;95.60
24162;DHT22;12318;51.262;7.066;2022-07-06T13:58:18;20.30;96.10
24162;DHT22;12318;51.262;7.066;2022-07-06T14:00:44;20.40;94.80
24162;DHT22;12318;51.262;7.066;2022-07-06T14:03:10;20.40;95.40
24162;DHT22;12318;51.262;7.066;2022-07-06T14:05:36;20.50;94.90
24162;DHT22;12318;51.262;7.066;2022-07-06T14:08:02;20.40;94.50
24162;DHT22;12318;51.262;7.066;2022-07-06T14:10:28;20.50;94.70
24162;DHT22;12318;51.262;7.066;2022-07-06T14:12:54;20.40;94.20
24162;DHT22;12318;51.262;7.066;2022-07-06T14:15:20;20.20;94.70
24162;DHT22;12318;51.262;7.066;2022-07-06T14:17:46;20.10;94.40
24162;DHT22;12318;51.262;7.066;2022-07-06T14:20:16;20.10;96.10
24162;DHT22;12318;51.262;7.066;2022-07-06T14:22:43;20.10;94.70
24162;DHT22;12318;51.262;7.066;2022-07-06T14:25:10;20.40;94.10
24162;DHT22;12318;51.262;7.066;2022-07-06T14:27:36;20.40;94.40
24162;DHT22;12318;51.262;7.066;2022-07-06T14:30:03;20.60;94.80
24162;DHT22;12318;51.262;7.066;2022-07-06T14:32:29;21.00;94.60
24162;DHT22;12318;51.262;7.066;2022-07-06T14:34:55;21.10;92.90
24162;DHT22;12318;51.262;7.066;2022-07-06T14:37:21;21.00;92.70
24162;DHT22;12318;51.262;7.066;2022-07-06T14:39:47;21.20;92.70
24162;DHT22;12318;51.262;7.066;2022-07-06T14:42:14;21.40;92.50
24162;DHT22;12318;51.262;7.066;2022-07-06T14:44:40;21.20;94.00
24162;DHT22;12318;51.262;7.066;2022-07-06T14:47:06;21.50;94.10
24162;DHT22;12318;51.262;7.066;2022-07-06T14:49:31;21.30;93.40
24162;DHT22;12318;51.262;7.066;2022-07-06T14:51:57;21.30;94.50
24162;DHT22;12318;51.262;7.066;2022-07-06T14:54:24;21.40;93.20
24162;DHT22;12318;51.262;7.066;2022-07-06T14:56:50;21.60;92.20
24162;DHT22;12318;51.262;7.066;2022-07-06T14:59:16;21.60;93.10
24162;DHT22;12318;51.262;7.066;2022-07-06T15:01:41;21.40;93.20
24162;DHT22;12318;51.262;7.066;2022-07-06T15:04:08;21.20;94.20
24162;DHT22;12318;51.262;7.066;2022-07-06T15:06:35;20.60;94.50
24162;DHT22;12318;51.262;7.066;2022-07-06T15:09:01;20.70;95.20
24162;DHT22;12318;51.262;7.066;2022-07-06T15:11:32;21.20;94.30
24162;DHT22;12318;51.262;7.066;2022-07-06T15:13:59;21.50;93.40
24162;DHT22;12318;51.262;7.066;2022-07-06T15:16:24;20.90;93.00
24162;DHT22;12318;51.262;7.066;2022-07-06T15:18:51;20.70;94.00
24162;DHT22;12318;51.262;7.066;2022-07-06T15:21:17;20.80;93.30
24162;DHT22;12318;51.262;7.066;2022-07-06T15:23:42;21.30;93.90
24162;DHT22;12318;51.262;7.066;2022-07-06T15:26:09;21.30;94.20
24162;DHT22;12318;51.262;7.066;2022-07-06T15:28:34;21.30;94.30
24162;DHT22;12318;51.262;7.066;2022-07-06T15:31:00;21.30;94.60
24162;DHT22;12318;51.262;7.066;2022-07-06T15:33:26;21.30;93.80
24162;DHT22;12318;51.262;7.066;2022-07-06T15:35:52;21.10;92.60
24162;DHT22;12318;51.262;7.066;2022-07-06T15:38:18;21.00;93.90
24162;DHT22;12318;51.262;7.066;2022-07-06T15:40:44;21.40;94.60
24162;DHT22;12318;51.262;7.066;2022-07-06T15:43:13;22.30;92.90
24162;DHT22;12318;51.262;7.066;2022-07-06T15:45:39;22.90;90.60